Data for 07/23/2006

Time Sea-Level Adjusted Pressure Absolute Pressure Temperature Relative Humidity Dew Point   
(mb) (inHg) (mb) (inHg) (C) (F) (%) (C) (F)
00:05 1021 30.15 850 25.1 27 80.6 21 3.1 37.6
00:10 1021 30.15 850 25.1 27 80.6 21 3.1 37.6
00:15 1021 30.15 850 25.1 26.8 80.3 21 3 37.4
00:20 1021 30.15 850 25.1 26.7 80 21 3.1 37.5
00:25 1021 30.15 850 25.1 26.4 79.6 22 3.4 38.1
00:30 1021 30.15 850 25.1 26.3 79.3 22 3.1 37.6
00:35 1021 30.15 850 25.1 26.3 79.4 22 3.2 37.8
00:40 1021 30.15 850 25.1 26.2 79.2 22 3.1 37.6
00:45 1021 30.15 850 25.1 26.2 79.1 22 3.2 37.8
00:50 1021 30.15 850 25.1 25.9 78.6 23 3.3 37.9
00:55 1021 30.15 850 25.1 25.6 78.1 23 3.5 38.2
01:00 1021 30.15 850 25.1 25.4 77.7 23 3.3 37.9
01:05 1021 30.15 850 25.1 25.4 77.7 23 3.3 37.9
01:10 1021 30.15 850 25.1 25.4 77.7 23 2.8 37.1
01:15 1021 30.15 850 25.1 25.6 78.1 23 3 37.3
01:20 1021 30.15 850 25.1 25.6 78.1 22 2.8 37.1
01:25 1021 30.15 850 25.1 25.5 77.9 23 3 37.3
01:30 1021 30.15 850 25.1 25.5 77.8 23 2.8 37.1
01:35 1021 30.15 850 25.1 25.5 77.8 23 2.8 37
01:40 1021 30.15 850 25.1 25.4 77.6 23 2.8 37.1
01:45 1021 30.15 850 25.1 25.2 77.4 23 2.9 37.3
01:50 1021 30.15 850 25.1 25.2 77.3 23 3.1 37.6
01:55 1021 30.15 850 25.1 24.9 76.7 26 4.1 39.3
02:00 1021 30.15 850 25.1 23.9 74.9 29 4.9 40.8
02:05 1021 30.15 850 25.1 22.7 72.9 33 6 42.8
02:10 1021 30.15 850 25.1 22.2 71.9 32 5 41.1
02:15 1021 30.15 850 25.1 22.1 71.7 32 4.8 40.6
02:20 1021 30.15 850 25.1 22 71.5 32 4.9 40.8
02:25 1020 30.12 850 25.1 21.9 71.3 33 5 41
02:30 1020 30.12 850 25.1 21.5 70.6 34 5.1 41.1
02:35 1020 30.12 850 25.1 21.8 71.2 33 4.9 40.8
02:40 1020 30.12 850 25.1 22.2 72 31 4.3 39.7
02:45 1020 30.12 850 25.1 22.3 72.1 31 4.3 39.8
02:50 1020 30.12 850 25.1 22.2 72 30 4.2 39.5
02:55 1020 30.12 849 25.07 22.3 72.1 30 4.1 39.4
03:00 1020 30.12 849 25.07 22.3 72.1 33 5.3 41.6
03:05 1020 30.12 849 25.07 22.2 72 31 4.3 39.7
03:10 1020 30.12 850 25.1 22.1 71.8 30 4 39.2
03:15 1020 30.12 850 25.1 22.3 72.2 29 3.4 38.1
03:20 1020 30.12 850 25.1 22.4 72.3 30 4 39.1
03:25 1020 30.12 850 25.1 22.1 71.8 30 3.9 39
03:30 1020 30.12 850 25.1 22.1 71.7 33 5.2 41.3
03:35 1020 30.12 850 25.1 21.9 71.4 30 3.8 38.9
03:40 1020 30.12 850 25.1 22.1 71.9 32 4.7 40.4
03:45 1020 30.12 850 25.1 22.2 72 30 4 39.2
03:50 1020 30.12 850 25.1 22.4 72.3 30 4.2 39.5
03:55 1020 30.12 850 25.1 22.3 72.2 30 4 39.2
04:00 1020 30.12 850 25.1 22.1 71.8 32 4.9 40.7
04:05 1020 30.12 850 25.1 21.6 70.8 34 5.2 41.4
04:10 1020 30.12 850 25.1 21.3 70.3 41 7.6 45.6
04:15 1020 30.12 850 25.1 21.5 70.7 36 6.1 43
04:20 1020 30.12 850 25.1 21.2 70.1 36 5.6 42.2
04:25 1020 30.12 850 25.1 20.9 69.6 38 6.2 43.2
04:30 1020 30.12 850 25.1 21 69.7 34 4.7 40.5
04:35 1020 30.12 850 25.1 21 69.8 37 6.1 42.9
04:40 1020 30.12 850 25.1 21 69.7 38 6.1 43
04:45 1020 30.12 850 25.1 20.9 69.5 35 5.1 41.3
04:50 1020 30.12 850 25.1 21.3 70.3 38 6.7 44.1
04:55 1020 30.12 850 25.1 21.1 69.9 46 9.1 48.4
05:00 1020 30.12 850 25.1 20 68 45 7.8 46.1
05:05 1020 30.12 850 25.1 19.3 66.8 48 8 46.4
05:10 1020 30.12 850 25.1 19.1 66.3 46 7.3 45.1
05:15 1020 30.12 850 25.1 19.7 67.5 42 6.6 43.9
05:20 1020 30.12 850 25.1 20 68 43 7 44.7
05:25 1021 30.15 850 25.1 20 68 43 7.2 44.9
05:30 1021 30.15 850 25.1 19.8 67.7 44 7.4 45.3
05:35 1021 30.15 850 25.1 19.6 67.2 48 8.4 47
05:40 1021 30.15 850 25.1 19.6 67.2 44 7.3 45.1
05:45 1021 30.15 850 25.1 19.8 67.6 44 7.4 45.3
05:50 1021 30.15 850 25.1 19.5 67.1 51 9.2 48.5
05:55 1021 30.15 850 25.1 19.2 66.5 47 7.8 46.1
06:00 1021 30.15 850 25.1 18.7 65.7 48 7.6 45.7
06:05 1021 30.15 850 25.1 18.6 65.6 47 7.2 44.9
06:10 1021 30.15 850 25.1 18.9 66.1 45 7 44.5
06:15 1021 30.15 850 25.1 19.4 66.9 43 6.5 43.6
06:20 1021 30.15 850 25.1 19.8 67.6 42 6.5 43.7
06:25 1021 30.15 850 25.1 19.8 67.6 42 6.5 43.8
06:30 1021 30.15 850 25.1 19.5 67.2 44 7 44.6
06:35 1021 30.15 850 25.1 19 66.3 47 7.5 45.4
06:40 1021 30.15 850 25.1 18.7 65.7 46 7.1 44.8
06:45 1021 30.15 850 25.1 18.7 65.6 47 7.2 44.9
06:50 1021 30.15 850 25.1 18.6 65.4 48 7.3 45.2
06:55 1021 30.15 850 25.1 18.7 65.6 46 7 44.5
07:00 1021 30.15 850 25.1 19.1 66.4 44 6.6 43.9
07:05 1021 30.15 850 25.1 19.4 67 44 7.1 44.7
07:10 1021 30.15 850 25.1 19.3 66.8 46 7.5 45.6
07:15 1021 30.15 850 25.1 19.2 66.6 43 6.6 43.9
07:20 1021 30.15 850 25.1 19.5 67 45 7.3 45.2
07:25 1021 30.15 850 25.1 19.8 67.6 45 7.6 45.7
07:30 1021 30.15 850 25.1 20.1 68.2 43 7.5 45.4
07:35 1021 30.15 850 25.1 20.6 69.1 47 9.1 48.5
07:40 1021 30.15 850 25.1 21.1 69.9 42 7.9 46.1
07:45 1021 30.15 850 25.1 21.6 70.9 40 7.6 45.7
07:50 1021 30.15 850 25.1 22.1 71.8 38 7.2 44.9
07:55 1021 30.15 850 25.1 22.3 72.2 37 7.2 45
08:00 1021 30.15 850 25.1 22.4 72.3 38 7.6 45.7
08:05 1021 30.15 850 25.1 22.9 73.2 37 7.6 45.7
08:10 1021 30.15 850 25.1 23.3 73.9 37 8.1 46.5
08:15 1021 30.15 850 25.1 23.6 74.5 38 8.5 47.3
08:20 1021 30.15 850 25.1 24.1 75.3 39 9.4 48.9
08:25 1021 30.15 850 25.1 24.4 75.9 35 8.2 46.7
08:30 1021 30.15 850 25.1 25.2 77.3 34 8.2 46.8
08:35 1021 30.15 850 25.1 25.8 78.5 33 8.6 47.4
08:40 1021 30.15 850 25.1 26.4 79.5 32 8.7 47.6
08:45 1021 30.15 850 25.1 26 78.8 33 8.8 47.8
08:50 1021 30.15 850 25.1 26.5 79.8 33 9 48.2
08:55 1021 30.15 850 25.1 26.4 79.4 33 8.9 48.1
09:00 1021 30.15 850 25.1 26.9 80.5 31 8.7 47.6
09:05 1021 30.15 850 25.1 27 80.7 33 9.6 49.3
09:10 1021 30.15 850 25.1 26.8 80.2 33 9.3 48.8
09:15 1021 30.15 851 25.13 26.6 79.9 35 10.1 50.2
09:20 1021 30.15 851 25.13 26.2 79.2 36 10.2 50.3
09:25 1021 30.15 851 25.13 26.8 80.2 35 10.3 50.5
09:30 1021 30.15 851 25.13 27.2 80.9 36 10.9 51.7
09:35 1021 30.15 851 25.13 27 80.6 35 10.6 51
09:40 1021 30.15 851 25.13 27 80.6 35 10.6 51.1
09:45 1021 30.15 851 25.13 26.9 80.4 37 11.2 52.2
09:50 1021 30.15 851 25.13 26.9 80.4 34 9.9 49.8
09:55 1021 30.15 851 25.13 27.2 80.9 32 9.5 49.1
10:00 1021 30.15 851 25.13 27.2 80.9 32 9.3 48.7
10:05 1021 30.15 851 25.13 27.3 81.2 31 9.1 48.3
10:10 1021 30.15 851 25.13 27.2 81 33 9.8 49.6
10:15 1022 30.18 851 25.13 27.1 80.8 32 9.3 48.7
10:20 1021 30.15 851 25.13 27.1 80.9 33 9.6 49.3
10:25 1021 30.15 851 25.13 27.2 80.9 32 9.5 49.1
10:30 1022 30.18 851 25.13 27.2 81 31 9 48.2
10:35 1022 30.18 851 25.13 27.8 82 29 8.5 47.3
10:40 1022 30.18 851 25.13 28.2 82.8 28 8.1 46.6
10:45 1021 30.15 851 25.13 28.5 83.3 27 8.1 46.6
10:50 1021 30.15 851 25.13 28.8 83.8 26 7.9 46.3
10:55 1021 30.15 851 25.13 29.1 84.4 26 8.2 46.8
11:00 1021 30.15 851 25.13 29.2 84.6 27 8.6 47.5
11:05 1021 30.15 850 25.1 29.5 85.2 27 8.7 47.6
11:10 1021 30.15 850 25.1 29.2 84.5 26 8.1 46.6
11:15 1021 30.15 850 25.1 28.9 84.1 27 8.4 47.2
11:20 1021 30.15 850 25.1 28.7 83.7 27 8.3 47
11:25 1021 30.15 850 25.1 29.7 85.5 24 7.5 45.5
11:30 1021 30.15 850 25.1 30.4 86.6 25 8.6 47.4
11:35 1021 30.15 850 25.1 30.8 87.5 24 8.2 46.8
11:40 1021 30.15 850 25.1 30.9 87.6 24 8.4 47
11:45 1021 30.15 850 25.1 30.5 86.9 24 7.8 46.1
11:50 1021 30.15 850 25.1 31.3 88.4 23 7.8 46.1
11:55 1021 30.15 850 25.1 31.2 88.2 22 7.5 45.5
12:00 1021 30.15 850 25.1 31.7 89 22 7.9 46.3
12:05 1021 30.15 850 25.1 31.8 89.3 21 7.4 45.3
12:10 1021 30.15 850 25.1 32.4 90.3 20 7.2 44.9
12:15 1021 30.15 850 25.1 32.2 89.9 20 6.9 44.4
12:20 1021 30.15 850 25.1 32 89.6 21 7.1 44.7
12:25 1021 30.15 850 25.1 32.4 90.3 20 7.2 45
12:30 1021 30.15 850 25.1 32.6 90.7 20 7 44.7
12:35 1021 30.15 850 25.1 32.5 90.6 20 7.3 45.1
12:40 1020 30.12 850 25.1 32.6 90.7 19 6.7 44.1
12:45 1020 30.12 850 25.1 32.7 90.8 20 7 44.6
12:50 1020 30.12 849 25.07 33.3 91.9 18 6.5 43.7
12:55 1020 30.12 849 25.07 33.2 91.8 19 7.2 44.9
13:00 1020 30.12 849 25.07 33.1 91.6 19 6.5 43.7
13:05 1020 30.12 849 25.07 33.1 91.6 19 7 44.5
13:10 1020 30.12 849 25.07 32.8 91 19 6.4 43.5
13:15 1020 30.12 849 25.07 33.5 92.2 19 6.7 44.1
13:20 1020 30.12 849 25.07 33.2 91.8 19 7.2 45
13:25 1020 30.12 849 25.07 33.4 92.1 18 6.4 43.6
13:30 1020 30.12 849 25.07 34 93.3 16 5.3 41.6
13:35 1020 30.12 849 25.07 34.3 93.7 16 5.1 41.1
13:40 1020 30.12 849 25.07 32.8 91.1 18 6.2 43.2
13:45 1020 30.12 849 25.07 33.3 91.9 17 5.8 42.4
13:50 1020 30.12 849 25.07 33.9 93.1 16 5.2 41.4
13:55 1019 30.09 849 25.07 34.3 93.7 17 5.8 42.4
14:00 1019 30.09 849 25.07 34.4 93.8 16 5.4 41.8
14:05 1019 30.09 849 25.07 33.7 92.7 17 5.8 42.5
14:10 1019 30.09 848 25.04 33.6 92.4 16 4.8 40.7
14:15 1019 30.09 848 25.04 34 93.3 16 5 41
14:20 1019 30.09 848 25.04 34.5 94.2 15 5.1 41.1
14:25 1019 30.09 848 25.04 35 94.9 16 5.5 41.9
14:30 1019 30.09 848 25.04 35.2 95.3 16 5.7 42.3
14:35 1019 30.09 848 25.04 35 95 16 5.7 42.3
14:40 1019 30.09 848 25.04 34.9 94.7 16 5.5 42
14:45 1019 30.09 848 25.04 34.8 94.7 16 5.7 42.2
14:50 1019 30.09 848 25.04 34.7 94.4 17 6.8 44.3
14:55 1019 30.09 848 25.04 34.7 94.5 16 5.5 41.9
15:00 1019 30.09 848 25.04 34.6 94.3 16 5.5 42
15:05 1019 30.09 848 25.04 34.3 93.7 18 6.9 44.5
15:10 1019 30.09 848 25.04 34.6 94.2 17 6.6 43.9
15:15 1019 30.09 848 25.04 34.7 94.4 17 6.4 43.4
15:20 1019 30.09 848 25.04 34.8 94.6 17 6.6 43.9
15:25 1019 30.09 848 25.04 34.9 94.9 17 6.9 44.5
15:30 1019 30.09 848 25.04 35.1 95.2 17 7 44.6
15:35 1019 30.09 848 25.04 35.1 95.2 17 6.7 44
15:40 1018 30.06 848 25.04 34.9 94.8 18 7.7 45.8
15:45 1018 30.06 848 25.04 34.4 93.9 18 7.1 44.7
15:50 1018 30.06 848 25.04 34.8 94.7 15 5 41
15:55 1018 30.06 847 25.01 35.3 95.5 15 5.5 41.9
16:00 1018 30.06 847 25.01 35.6 96.1 14 4.9 40.8
16:05 1018 30.06 848 25.04 35.8 96.4 13 3.9 38.9
16:10 1018 30.06 848 25.04 35.7 96.2 14 4.3 39.8
16:15 1018 30.06 847 25.01 35.5 95.9 15 5.3 41.5
16:20 1018 30.06 847 25.01 35.1 95.1 15 5.4 41.7
16:25 1018 30.06 847 25.01 35.7 96.2 15 5.6 42.1
16:30 1018 30.06 847 25.01 35.4 95.8 14 4.5 40.2
16:35 1018 30.06 847 25.01 34.4 94 15 4.6 40.3
16:40 1018 30.06 847 25.01 34.3 93.8 16 5.1 41.2
16:45 1018 30.06 847 25.01 34.1 93.4 17 6 42.8
16:50 1018 30.06 847 25.01 33.7 92.7 16 5 41
16:55 1018 30.06 847 25.01 32.8 91 16 4.3 39.7
17:00 1018 30.06 847 25.01 32.5 90.4 17 5.1 41.1
17:05 1018 30.06 847 25.01 32.7 90.8 17 4.8 40.7
17:10 1018 30.06 847 25.01 32.4 90.3 17 4.9 40.8
17:15 1018 30.06 847 25.01 32.2 90 18 5.1 41.2
17:20 1018 30.06 847 25.01 32 89.6 19 5.5 41.9
17:25 1019 30.09 848 25.04 32.1 89.7 19 5.8 42.4
17:30 1019 30.09 848 25.04 31.4 88.5 28 10.9 51.6
17:35 1019 30.09 848 25.04 29.1 84.4 30 9.9 49.8
17:40 1019 30.09 848 25.04 28.7 83.7 32 10.5 50.9
17:45 1019 30.09 848 25.04 27.4 81.4 32 9.4 48.9
17:50 1018 30.06 848 25.04 27.1 80.8 33 9.9 49.8
17:55 1018 30.06 848 25.04 26.9 80.4 35 10.6 51
18:00 1018 30.06 848 25.04 27 80.5 34 10.2 50.4
18:05 1018 30.06 848 25.04 28.4 83 30 9.3 48.7
18:10 1018 30.06 847 25.01 28.7 83.7 31 10.2 50.4
18:15 1018 30.06 847 25.01 29 84.2 29 9.6 49.4
18:20 1018 30.06 847 25.01 29.2 84.5 31 10.7 51.2
18:25 1018 30.06 847 25.01 28.6 83.4 30 9.8 49.6
18:30 1018 30.06 847 25.01 28.5 83.3 30 9.7 49.4
18:35 1018 30.06 847 25.01 28.7 83.7 31 10.2 50.3
18:40 1018 30.06 847 25.01 28.7 83.7 31 10.2 50.4
18:45 1018 30.06 847 25.01 28.7 83.7 31 10.1 50.1
18:50 1018 30.06 847 25.01 28.9 84 32 10.8 51.4
18:55 1018 30.06 847 25.01 29 84.3 30 10.2 50.3
19:00 1018 30.06 847 25.01 29.1 84.4 32 10.8 51.5
19:05 1018 30.06 847 25.01 29.2 84.5 32 11.2 52.1
19:10 1018 30.06 847 25.01 29.2 84.6 31 10.9 51.6
19:15 1018 30.06 847 25.01 29 84.2 32 10.9 51.5
19:20 1018 30.06 847 25.01 28.9 84 30 9.8 49.6
19:25 1018 30.06 847 25.01 29 84.2 30 9.9 49.8
19:30 1018 30.06 847 25.01 29.1 84.3 29 9.7 49.4
19:35 1017 30.03 847 25.01 28.7 83.6 31 10.2 50.4
19:40 1017 30.03 847 25.01 28.3 82.9 32 10.2 50.4
19:45 1017 30.03 847 25.01 28.2 82.8 32 10.3 50.6
19:50 1017 30.03 847 25.01 28.4 83.1 31 9.9 49.9
19:55 1017 30.03 847 25.01 28.4 83.2 31 9.9 49.8
20:00 1017 30.03 847 25.01 28.4 83.2 32 10.6 51
20:05 1017 30.03 847 25.01 28.2 82.8 34 11.1 51.9
20:10 1017 30.03 847 25.01 28.1 82.5 36 11.8 53.3
20:15 1017 30.03 847 25.01 28 82.3 36 11.6 52.9
20:20 1017 30.03 847 25.01 27.9 82.1 37 12.2 54
20:25 1017 30.03 847 25.01 27.7 81.9 39 12.7 54.9
20:30 1017 30.03 847 25.01 27.4 81.4 37 11.8 53.3
20:35 1017 30.03 847 25.01 27.3 81.1 38 11.9 53.3
20:40 1017 30.03 847 25.01 27.2 80.9 35 10.5 50.9
20:45 1017 30.03 847 25.01 27.4 81.4 39 12.4 54.3
20:50 1017 30.03 847 25.01 27.2 81 37 11.6 52.9
20:55 1018 30.06 847 25.01 26.7 80.1 40 12.1 53.8
21:00 1018 30.06 847 25.01 26.2 79.2 37 10.8 51.5
21:05 1018 30.06 847 25.01 26.6 79.8 32 8.8 47.8
21:10 1018 30.06 847 25.01 27.2 80.9 30 8.5 47.3
21:15 1018 30.06 847 25.01 27.3 81.2 30 8.4 47.1
21:20 1018 30.06 847 25.01 27.4 81.2 32 9.5 49.1
21:25 1018 30.06 848 25.04 27.1 80.8 37 11.6 52.9
21:30 1018 30.06 848 25.04 26.2 79.1 51 15.5 60
21:35 1018 30.06 847 25.01 25.2 77.3 42 11.5 52.6
21:40 1018 30.06 847 25.01 25.5 77.9 43 12.1 53.8
21:45 1018 30.06 847 25.01 24.7 76.4 44 12 53.5
21:50 1018 30.06 847 25.01 24.9 76.7 40 10.5 50.9
21:55 1018 30.06 848 25.04 25.4 77.6 38 10.2 50.3
22:00 1018 30.06 848 25.04 25.3 77.5 43 12.1 53.7
22:05 1018 30.06 848 25.04 25 76.9 40 10.5 50.9
22:10 1018 30.06 848 25.04 24.9 76.9 40 10.7 51.3
22:15 1018 30.06 847 25.01 24.8 76.6 39 10.1 50.3
22:20 1018 30.06 848 25.04 24.6 76.2 43 11.2 52.2
22:25 1018 30.06 848 25.04 23.9 75 45 11.4 52.6
22:30 1019 30.09 848 25.04 23.8 74.9 42 10.2 50.4
22:35 1019 30.09 848 25.04 24.1 75.4 43 10.8 51.5
22:40 1019 30.09 848 25.04 24 75.2 42 10.5 51
22:45 1019 30.09 848 25.04 24 75.2 42 10.5 50.9
22:50 1019 30.09 848 25.04 24 75.2 42 10.7 51.2
22:55 1019 30.09 848 25.04 24 75.2 41 10.1 50.3
23:00 1019 30.09 848 25.04 24.1 75.3 41 10.3 50.5
23:05 1019 30.09 849 25.07 24.1 75.3 43 10.9 51.7
23:10 1020 30.12 849 25.07 23.9 75 43 10.7 51.2
23:15 1020 30.12 849 25.07 23.9 75 46 11.6 53
23:20 1019 30.09 849 25.07 22.7 72.8 49 11.7 53
23:25 1019 30.09 848 25.04 23.5 74.3 43 10.3 50.5
23:30 1018 30.06 847 25.01 23.5 74.4 43 10.5 50.8
23:35 1018 30.06 847 25.01 24 75.3 37 8.5 47.4
23:40 1018 30.06 847 25.01 24.4 75.8 39 9.7 49.5
23:45 1018 30.06 847 25.01 24.1 75.4 42 10.6 51.1
23:50 1018 30.06 847 25.01 23.6 74.5 43 10.5 50.9
23:55 1018 30.06 848 25.04 23.3 73.9 43 10.3 50.5
24:00 1018 30.06 847 25.01 23.3 73.9 44 10.6 51.1